sensor_id;sensor_type;location;lat;lon;timestamp;temperature;humidity
23568;DHT22;11962;50.838;4.430;2023-07-29T00:01:59;21.20;99.90
23568;DHT22;11962;50.838;4.430;2023-07-29T00:04:25;21.10;99.90
23568;DHT22;11962;50.838;4.430;2023-07-29T00:06:51;21.10;99.90
23568;DHT22;11962;50.838;4.430;2023-07-29T00:09:16;21.10;99.90
23568;DHT22;11962;50.838;4.430;2023-07-29T00:11:42;21.10;99.90
23568;DHT22;11962;50.838;4.430;2023-07-29T00:14:08;21.10;99.90
23568;DHT22;11962;50.838;4.430;2023-07-29T00:16:33;21.00;99.90
23568;DHT22;11962;50.838;4.430;2023-07-29T00:18:59;20.90;99.90
23568;DHT22;11962;50.838;4.430;2023-07-29T00:21:25;20.90;99.90
23568;DHT22;11962;50.838;4.430;2023-07-29T00:23:51;20.90;99.90
23568;DHT22;11962;50.838;4.430;2023-07-29T00:26:17;20.90;99.90
23568;DHT22;11962;50.838;4.430;2023-07-29T00:28:42;20.90;99.90
23568;DHT22;11962;50.838;4.430;2023-07-29T00:31:08;20.80;99.90
23568;DHT22;11962;50.838;4.430;2023-07-29T00:33:34;20.80;99.90
23568;DHT22;11962;50.838;4.430;2023-07-29T00:36:00;20.70;99.90
23568;DHT22;11962;50.838;4.430;2023-07-29T00:38:28;20.70;99.90
23568;DHT22;11962;50.838;4.430;2023-07-29T00:41:00;20.60;99.90
23568;DHT22;11962;50.838;4.430;2023-07-29T00:43:26;20.60;99.90
23568;DHT22;11962;50.838;4.430;2023-07-29T00:45:52;20.50;99.90
23568;DHT22;11962;50.838;4.430;2023-07-29T00:48:18;20.50;99.90
23568;DHT22;11962;50.838;4.430;2023-07-29T00:50:44;20.50;99.90
23568;DHT22;11962;50.838;4.430;2023-07-29T00:53:10;20.40;99.90
23568;DHT22;11962;50.838;4.430;2023-07-29T00:55:36;20.40;99.90
23568;DHT22;11962;50.838;4.430;2023-07-29T00:58:03;20.30;99.90
23568;DHT22;11962;50.838;4.430;2023-07-29T01:00:28;20.30;99.90
23568;DHT22;11962;50.838;4.430;2023-07-29T01:02:54;20.30;99.90
23568;DHT22;11962;50.838;4.430;2023-07-29T01:05:20;20.30;99.90
23568;DHT22;11962;50.838;4.430;2023-07-29T01:08:03;20.30;99.90
23568;DHT22;11962;50.838;4.430;2023-07-29T01:13:19;20.30;99.90
23568;DHT22;11962;50.838;4.430;2023-07-29T01:18:27;20.30;99.90
23568;DHT22;11962;50.838;4.430;2023-07-29T01:20:55;20.20;99.90
23568;DHT22;11962;50.838;4.430;2023-07-29T01:23:25;20.20;99.90
23568;DHT22;11962;50.838;4.430;2023-07-29T01:25:51;20.20;99.90
23568;DHT22;11962;50.838;4.430;2023-07-29T01:28:17;20.20;99.90
23568;DHT22;11962;50.838;4.430;2023-07-29T01:30:43;20.20;99.90
23568;DHT22;11962;50.838;4.430;2023-07-29T01:33:17;20.20;99.90
23568;DHT22;11962;50.838;4.430;2023-07-29T01:35:54;20.10;99.90
23568;DHT22;11962;50.838;4.430;2023-07-29T01:38:36;20.10;99.90
23568;DHT22;11962;50.838;4.430;2023-07-29T01:41:05;20.00;99.90
23568;DHT22;11962;50.838;4.430;2023-07-29T01:43:32;20.10;99.90
23568;DHT22;11962;50.838;4.430;2023-07-29T01:46:00;20.10;99.90
23568;DHT22;11962;50.838;4.430;2023-07-29T01:48:25;20.00;99.90
23568;DHT22;11962;50.838;4.430;2023-07-29T01:50:53;20.00;99.90
23568;DHT22;11962;50.838;4.430;2023-07-29T01:53:18;20.00;99.90
23568;DHT22;11962;50.838;4.430;2023-07-29T01:55:44;20.00;99.90
23568;DHT22;11962;50.838;4.430;2023-07-29T01:58:11;20.00;99.90
23568;DHT22;11962;50.838;4.430;2023-07-29T02:00:36;20.00;99.90
23568;DHT22;11962;50.838;4.430;2023-07-29T02:03:02;19.90;99.90
23568;DHT22;11962;50.838;4.430;2023-07-29T02:05:28;19.90;99.90
23568;DHT22;11962;50.838;4.430;2023-07-29T02:07:54;19.90;99.90
23568;DHT22;11962;50.838;4.430;2023-07-29T02:10:19;19.90;99.90
23568;DHT22;11962;50.838;4.430;2023-07-29T02:12:45;19.90;99.90
23568;DHT22;11962;50.838;4.430;2023-07-29T02:15:11;19.80;99.90
23568;DHT22;11962;50.838;4.430;2023-07-29T02:17:37;19.80;99.90
23568;DHT22;11962;50.838;4.430;2023-07-29T02:20:03;19.80;99.90
23568;DHT22;11962;50.838;4.430;2023-07-29T02:22:29;19.80;99.90
23568;DHT22;11962;50.838;4.430;2023-07-29T02:24:55;19.80;99.90
23568;DHT22;11962;50.838;4.430;2023-07-29T02:27:21;19.80;99.90
23568;DHT22;11962;50.838;4.430;2023-07-29T02:29:47;19.70;99.90
23568;DHT22;11962;50.838;4.430;2023-07-29T02:32:12;19.70;99.90
23568;DHT22;11962;50.838;4.430;2023-07-29T02:34:38;19.70;99.90
23568;DHT22;11962;50.838;4.430;2023-07-29T02:37:04;19.70;99.90
23568;DHT22;11962;50.838;4.430;2023-07-29T02:39:30;19.70;99.90
23568;DHT22;11962;50.838;4.430;2023-07-29T02:41:56;19.60;99.90
23568;DHT22;11962;50.838;4.430;2023-07-29T02:44:24;19.60;99.90
23568;DHT22;11962;50.838;4.430;2023-07-29T02:46:50;19.60;99.90
23568;DHT22;11962;50.838;4.430;2023-07-29T02:49:17;19.50;99.90
23568;DHT22;11962;50.838;4.430;2023-07-29T02:51:43;19.50;99.90
23568;DHT22;11962;50.838;4.430;2023-07-29T02:54:09;19.50;99.90
23568;DHT22;11962;50.838;4.430;2023-07-29T02:56:35;19.60;99.90
23568;DHT22;11962;50.838;4.430;2023-07-29T02:59:00;19.60;99.90
23568;DHT22;11962;50.838;4.430;2023-07-29T03:01:27;19.60;99.90
23568;DHT22;11962;50.838;4.430;2023-07-29T03:03:52;19.60;99.90
23568;DHT22;11962;50.838;4.430;2023-07-29T03:06:18;19.60;99.90
23568;DHT22;11962;50.838;4.430;2023-07-29T03:08:44;19.60;99.90
23568;DHT22;11962;50.838;4.430;2023-07-29T03:11:14;19.60;99.90
23568;DHT22;11962;50.838;4.430;2023-07-29T03:13:41;19.60;99.90
23568;DHT22;11962;50.838;4.430;2023-07-29T03:16:16;19.60;99.90
23568;DHT22;11962;50.838;4.430;2023-07-29T03:18:43;19.50;99.90
23568;DHT22;11962;50.838;4.430;2023-07-29T03:21:10;19.50;99.90
23568;DHT22;11962;50.838;4.430;2023-07-29T03:23:36;19.50;99.90
23568;DHT22;11962;50.838;4.430;2023-07-29T03:26:03;19.50;99.90
23568;DHT22;11962;50.838;4.430;2023-07-29T03:28:37;19.50;99.90
23568;DHT22;11962;50.838;4.430;2023-07-29T03:31:03;19.40;99.90
23568;DHT22;11962;50.838;4.430;2023-07-29T03:33:29;19.40;99.90
23568;DHT22;11962;50.838;4.430;2023-07-29T03:35:55;19.40;99.90
23568;DHT22;11962;50.838;4.430;2023-07-29T03:38:21;19.30;99.90
23568;DHT22;11962;50.838;4.430;2023-07-29T03:40:46;19.30;99.90
23568;DHT22;11962;50.838;4.430;2023-07-29T03:43:12;19.30;99.90
23568;DHT22;11962;50.838;4.430;2023-07-29T03:45:39;19.30;99.90
23568;DHT22;11962;50.838;4.430;2023-07-29T03:48:06;19.30;99.90
23568;DHT22;11962;50.838;4.430;2023-07-29T03:50:34;19.30;99.90
23568;DHT22;11962;50.838;4.430;2023-07-29T03:53:01;19.30;99.90
23568;DHT22;11962;50.838;4.430;2023-07-29T03:55:27;19.30;99.90
23568;DHT22;11962;50.838;4.430;2023-07-29T03:57:52;19.30;99.90
23568;DHT22;11962;50.838;4.430;2023-07-29T04:00:18;19.30;99.90
23568;DHT22;11962;50.838;4.430;2023-07-29T04:02:44;19.30;99.90
23568;DHT22;11962;50.838;4.430;2023-07-29T04:05:11;19.20;99.90
23568;DHT22;11962;50.838;4.430;2023-07-29T04:07:37;19.20;99.90
23568;DHT22;11962;50.838;4.430;2023-07-29T04:10:03;19.30;99.90
23568;DHT22;11962;50.838;4.430;2023-07-29T04:12:30;19.30;99.90
23568;DHT22;11962;50.838;4.430;2023-07-29T04:14:55;19.20;99.90
23568;DHT22;11962;50.838;4.430;2023-07-29T04:17:21;19.20;99.90
23568;DHT22;11962;50.838;4.430;2023-07-29T04:19:47;19.20;99.90
23568;DHT22;11962;50.838;4.430;2023-07-29T04:22:13;19.30;99.90
23568;DHT22;11962;50.838;4.430;2023-07-29T04:24:39;19.30;99.90
23568;DHT22;11962;50.838;4.430;2023-07-29T04:27:05;19.30;99.90
23568;DHT22;11962;50.838;4.430;2023-07-29T04:29:31;19.30;99.90
23568;DHT22;11962;50.838;4.430;2023-07-29T04:31:57;19.30;99.90
23568;DHT22;11962;50.838;4.430;2023-07-29T04:34:22;19.30;99.90
23568;DHT22;11962;50.838;4.430;2023-07-29T04:36:48;19.40;99.90
23568;DHT22;11962;50.838;4.430;2023-07-29T04:39:14;19.40;99.90
23568;DHT22;11962;50.838;4.430;2023-07-29T04:41:40;19.40;99.90
23568;DHT22;11962;50.838;4.430;2023-07-29T04:44:06;19.40;99.90
23568;DHT22;11962;50.838;4.430;2023-07-29T04:46:32;19.40;99.90
23568;DHT22;11962;50.838;4.430;2023-07-29T04:48:58;19.40;99.90
23568;DHT22;11962;50.838;4.430;2023-07-29T04:51:24;19.50;99.90
23568;DHT22;11962;50.838;4.430;2023-07-29T04:53:50;19.50;99.90
23568;DHT22;11962;50.838;4.430;2023-07-29T04:56:16;19.50;99.90
23568;DHT22;11962;50.838;4.430;2023-07-29T04:58:42;19.50;99.90
23568;DHT22;11962;50.838;4.430;2023-07-29T05:01:07;19.50;99.90
23568;DHT22;11962;50.838;4.430;2023-07-29T05:03:33;19.50;99.90
23568;DHT22;11962;50.838;4.430;2023-07-29T05:05:59;19.50;99.90
23568;DHT22;11962;50.838;4.430;2023-07-29T05:08:28;19.50;99.90
23568;DHT22;11962;50.838;4.430;2023-07-29T05:10:54;19.50;99.90
23568;DHT22;11962;50.838;4.430;2023-07-29T05:13:21;19.60;99.90
23568;DHT22;11962;50.838;4.430;2023-07-29T05:15:48;19.60;99.90
23568;DHT22;11962;50.838;4.430;2023-07-29T05:18:15;19.60;99.90
23568;DHT22;11962;50.838;4.430;2023-07-29T05:20:41;19.60;99.90
23568;DHT22;11962;50.838;4.430;2023-07-29T05:23:06;19.70;99.90
23568;DHT22;11962;50.838;4.430;2023-07-29T05:25:32;19.80;99.90
23568;DHT22;11962;50.838;4.430;2023-07-29T05:28:00;19.90;99.90
23568;DHT22;11962;50.838;4.430;2023-07-29T05:30:26;20.00;99.90
23568;DHT22;11962;50.838;4.430;2023-07-29T05:32:59;20.00;99.90
23568;DHT22;11962;50.838;4.430;2023-07-29T05:35:25;20.00;99.90
23568;DHT22;11962;50.838;4.430;2023-07-29T05:37:50;20.10;99.90
23568;DHT22;11962;50.838;4.430;2023-07-29T05:40:16;20.20;99.90
23568;DHT22;11962;50.838;4.430;2023-07-29T05:42:42;20.40;99.90
23568;DHT22;11962;50.838;4.430;2023-07-29T05:45:09;20.70;99.90
23568;DHT22;11962;50.838;4.430;2023-07-29T05:47:36;20.80;99.90
23568;DHT22;11962;50.838;4.430;2023-07-29T05:50:02;21.10;99.90
23568;DHT22;11962;50.838;4.430;2023-07-29T05:52:33;21.40;99.90
23568;DHT22;11962;50.838;4.430;2023-07-29T05:54:59;21.70;99.90
23568;DHT22;11962;50.838;4.430;2023-07-29T05:57:25;21.80;99.90
23568;DHT22;11962;50.838;4.430;2023-07-29T05:59:50;22.00;99.90
23568;DHT22;11962;50.838;4.430;2023-07-29T06:02:16;22.10;99.90
23568;DHT22;11962;50.838;4.430;2023-07-29T06:04:42;22.20;99.90
23568;DHT22;11962;50.838;4.430;2023-07-29T06:07:08;22.40;99.90
23568;DHT22;11962;50.838;4.430;2023-07-29T06:09:34;22.50;99.90
23568;DHT22;11962;50.838;4.430;2023-07-29T06:11:59;22.60;99.90
23568;DHT22;11962;50.838;4.430;2023-07-29T06:14:25;22.70;99.90
23568;DHT22;11962;50.838;4.430;2023-07-29T06:16:51;23.00;99.90
23568;DHT22;11962;50.838;4.430;2023-07-29T06:19:19;23.80;99.90
23568;DHT22;11962;50.838;4.430;2023-07-29T06:21:45;24.40;99.90
23568;DHT22;11962;50.838;4.430;2023-07-29T06:24:10;24.60;99.90
23568;DHT22;11962;50.838;4.430;2023-07-29T06:26:36;25.30;99.90
23568;DHT22;11962;50.838;4.430;2023-07-29T06:29:02;26.70;99.90
23568;DHT22;11962;50.838;4.430;2023-07-29T06:31:28;27.40;99.90
23568;DHT22;11962;50.838;4.430;2023-07-29T06:33:55;27.20;99.90
23568;DHT22;11962;50.838;4.430;2023-07-29T06:36:20;26.70;99.90
23568;DHT22;11962;50.838;4.430;2023-07-29T06:38:46;26.50;99.90
23568;DHT22;11962;50.838;4.430;2023-07-29T06:41:12;26.70;99.90
23568;DHT22;11962;50.838;4.430;2023-07-29T06:43:38;27.50;99.90
23568;DHT22;11962;50.838;4.430;2023-07-29T06:46:04;29.20;99.90
23568;DHT22;11962;50.838;4.430;2023-07-29T06:48:30;30.50;98.40
23568;DHT22;11962;50.838;4.430;2023-07-29T06:50:55;30.90;95.80
23568;DHT22;11962;50.838;4.430;2023-07-29T06:53:28;30.70;93.90
23568;DHT22;11962;50.838;4.430;2023-07-29T06:55:54;30.10;94.40
23568;DHT22;11962;50.838;4.430;2023-07-29T06:58:20;29.60;94.70
23568;DHT22;11962;50.838;4.430;2023-07-29T07:00:46;29.00;95.10
23568;DHT22;11962;50.838;4.430;2023-07-29T07:03:12;28.30;95.80
23568;DHT22;11962;50.838;4.430;2023-07-29T07:05:37;27.50;97.10
23568;DHT22;11962;50.838;4.430;2023-07-29T07:08:03;26.80;99.20
23568;DHT22;11962;50.838;4.430;2023-07-29T07:10:29;26.20;99.90
23568;DHT22;11962;50.838;4.430;2023-07-29T07:12:55;25.70;99.90
23568;DHT22;11962;50.838;4.430;2023-07-29T07:15:21;25.20;99.90
23568;DHT22;11962;50.838;4.430;2023-07-29T07:17:46;24.80;99.90
23568;DHT22;11962;50.838;4.430;2023-07-29T07:20:12;24.70;99.90
23568;DHT22;11962;50.838;4.430;2023-07-29T07:22:38;24.70;99.90
23568;DHT22;11962;50.838;4.430;2023-07-29T07:25:04;24.60;99.90
23568;DHT22;11962;50.838;4.430;2023-07-29T07:27:30;24.40;99.90
23568;DHT22;11962;50.838;4.430;2023-07-29T07:29:56;24.30;99.90
23568;DHT22;11962;50.838;4.430;2023-07-29T07:32:22;24.20;99.90
23568;DHT22;11962;50.838;4.430;2023-07-29T07:34:47;24.00;99.90
23568;DHT22;11962;50.838;4.430;2023-07-29T07:37:13;23.90;99.90
23568;DHT22;11962;50.838;4.430;2023-07-29T07:39:39;23.70;99.90
23568;DHT22;11962;50.838;4.430;2023-07-29T07:42:05;23.60;99.90
23568;DHT22;11962;50.838;4.430;2023-07-29T07:44:31;23.60;99.90
23568;DHT22;11962;50.838;4.430;2023-07-29T07:46:56;23.50;99.90
23568;DHT22;11962;50.838;4.430;2023-07-29T07:49:22;23.50;99.90
23568;DHT22;11962;50.838;4.430;2023-07-29T07:51:48;23.80;99.90
23568;DHT22;11962;50.838;4.430;2023-07-29T07:54:14;24.40;99.90
23568;DHT22;11962;50.838;4.430;2023-07-29T07:56:39;24.90;99.90
23568;DHT22;11962;50.838;4.430;2023-07-29T07:59:05;25.30;99.90
23568;DHT22;11962;50.838;4.430;2023-07-29T08:01:38;25.30;99.90
23568;DHT22;11962;50.838;4.430;2023-07-29T08:04:05;25.20;99.90
23568;DHT22;11962;50.838;4.430;2023-07-29T08:06:31;25.20;99.90
23568;DHT22;11962;50.838;4.430;2023-07-29T08:08:58;25.50;99.90
23568;DHT22;11962;50.838;4.430;2023-07-29T08:11:24;26.00;99.90
23568;DHT22;11962;50.838;4.430;2023-07-29T08:13:49;26.90;99.90
23568;DHT22;11962;50.838;4.430;2023-07-29T08:16:15;28.10;99.90
23568;DHT22;11962;50.838;4.430;2023-07-29T08:18:41;30.40;99.90
23568;DHT22;11962;50.838;4.430;2023-07-29T08:21:07;32.80;94.90
23568;DHT22;11962;50.838;4.430;2023-07-29T08:23:34;34.30;88.50
23568;DHT22;11962;50.838;4.430;2023-07-29T08:26:01;33.70;84.50
23568;DHT22;11962;50.838;4.430;2023-07-29T08:28:28;32.60;86.20
23568;DHT22;11962;50.838;4.430;2023-07-29T08:30:54;32.10;86.70
23568;DHT22;11962;50.838;4.430;2023-07-29T08:33:20;31.90;87.00
23568;DHT22;11962;50.838;4.430;2023-07-29T08:35:45;32.10;86.70
23568;DHT22;11962;50.838;4.430;2023-07-29T08:38:11;32.80;82.80
23568;DHT22;11962;50.838;4.430;2023-07-29T08:40:42;33.40;80.10
23568;DHT22;11962;50.838;4.430;2023-07-29T08:43:12;33.60;78.30
23568;DHT22;11962;50.838;4.430;2023-07-29T08:45:40;33.90;77.10
23568;DHT22;11962;50.838;4.430;2023-07-29T08:48:10;34.70;74.80
23568;DHT22;11962;50.838;4.430;2023-07-29T08:50:37;35.70;71.80
23568;DHT22;11962;50.838;4.430;2023-07-29T08:53:05;36.30;69.50
23568;DHT22;11962;50.838;4.430;2023-07-29T08:55:32;37.10;66.50
23568;DHT22;11962;50.838;4.430;2023-07-29T08:57:59;36.70;64.50
23568;DHT22;11962;50.838;4.430;2023-07-29T09:00:26;35.70;65.60
23568;DHT22;11962;50.838;4.430;2023-07-29T09:02:51;36.30;65.80
23568;DHT22;11962;50.838;4.430;2023-07-29T09:05:18;38.30;60.80
23568;DHT22;11962;50.838;4.430;2023-07-29T09:07:44;40.10;58.20
23568;DHT22;11962;50.838;4.430;2023-07-29T09:10:11;41.80;54.00
23568;DHT22;11962;50.838;4.430;2023-07-29T09:12:39;43.20;51.20
23568;DHT22;11962;50.838;4.430;2023-07-29T09:15:05;43.50;48.20
23568;DHT22;11962;50.838;4.430;2023-07-29T09:17:34;44.10;47.10
23568;DHT22;11962;50.838;4.430;2023-07-29T09:20:00;43.30;47.30
23568;DHT22;11962;50.838;4.430;2023-07-29T09:22:27;41.10;48.70
23568;DHT22;11962;50.838;4.430;2023-07-29T09:24:53;39.30;51.40
23568;DHT22;11962;50.838;4.430;2023-07-29T09:27:26;37.80;52.80
23568;DHT22;11962;50.838;4.430;2023-07-29T09:29:53;36.60;55.50
23568;DHT22;11962;50.838;4.430;2023-07-29T09:32:23;35.60;56.80
23568;DHT22;11962;50.838;4.430;2023-07-29T09:34:49;34.80;58.30
23568;DHT22;11962;50.838;4.430;2023-07-29T09:37:21;35.00;58.80
23568;DHT22;11962;50.838;4.430;2023-07-29T09:39:48;36.70;57.70
23568;DHT22;11962;50.838;4.430;2023-07-29T09:42:19;37.80;55.00
23568;DHT22;11962;50.838;4.430;2023-07-29T09:44:45;37.30;55.10
23568;DHT22;11962;50.838;4.430;2023-07-29T09:47:19;36.20;56.40
23568;DHT22;11962;50.838;4.430;2023-07-29T09:49:46;34.80;59.00
23568;DHT22;11962;50.838;4.430;2023-07-29T09:52:13;33.90;60.80
23568;DHT22;11962;50.838;4.430;2023-07-29T09:54:39;33.10;63.20
23568;DHT22;11962;50.838;4.430;2023-07-29T09:57:06;32.30;65.20
23568;DHT22;11962;50.838;4.430;2023-07-29T09:59:35;31.40;68.70
23568;DHT22;11962;50.838;4.430;2023-07-29T10:02:01;31.00;70.20
23568;DHT22;11962;50.838;4.430;2023-07-29T10:04:27;31.60;71.10
23568;DHT22;11962;50.838;4.430;2023-07-29T10:06:54;34.30;67.00
23568;DHT22;11962;50.838;4.430;2023-07-29T10:09:20;36.70;59.80
23568;DHT22;11962;50.838;4.430;2023-07-29T10:11:47;37.40;57.40
23568;DHT22;11962;50.838;4.430;2023-07-29T10:14:14;36.60;58.50
23568;DHT22;11962;50.838;4.430;2023-07-29T10:16:40;35.50;60.00
23568;DHT22;11962;50.838;4.430;2023-07-29T10:19:07;34.90;61.10
23568;DHT22;11962;50.838;4.430;2023-07-29T10:21:36;34.10;63.90
23568;DHT22;11962;50.838;4.430;2023-07-29T10:24:07;33.60;66.10
23568;DHT22;11962;50.838;4.430;2023-07-29T10:26:34;33.20;66.00
23568;DHT22;11962;50.838;4.430;2023-07-29T10:29:06;32.60;67.70
23568;DHT22;11962;50.838;4.430;2023-07-29T10:31:34;32.10;68.90
23568;DHT22;11962;50.838;4.430;2023-07-29T10:34:01;31.40;70.50
23568;DHT22;11962;50.838;4.430;2023-07-29T10:36:28;30.90;73.30
23568;DHT22;11962;50.838;4.430;2023-07-29T10:38:54;30.40;77.00
23568;DHT22;11962;50.838;4.430;2023-07-29T10:41:19;29.80;81.30
23568;DHT22;11962;50.838;4.430;2023-07-29T10:43:45;29.40;86.10
23568;DHT22;11962;50.838;4.430;2023-07-29T10:48:55;29.10;91.20
23568;DHT22;11962;50.838;4.430;2023-07-29T10:51:36;30.10;91.40
23568;DHT22;11962;50.838;4.430;2023-07-29T10:54:03;31.20;90.00
23568;DHT22;11962;50.838;4.430;2023-07-29T10:56:37;31.30;88.60
23568;DHT22;11962;50.838;4.430;2023-07-29T11:01:43;30.20;90.50
23568;DHT22;11962;50.838;4.430;2023-07-29T11:04:21;29.80;91.30
23568;DHT22;11962;50.838;4.430;2023-07-29T11:12:47;28.10;95.40
23568;DHT22;11962;50.838;4.430;2023-07-29T11:15:25;28.40;95.10
23568;DHT22;11962;50.838;4.430;2023-07-29T11:17:56;28.50;94.50
23568;DHT22;11962;50.838;4.430;2023-07-29T11:20:26;28.40;94.80
23568;DHT22;11962;50.838;4.430;2023-07-29T11:22:57;28.10;95.10
23568;DHT22;11962;50.838;4.430;2023-07-29T11:25:24;27.90;95.70
23568;DHT22;11962;50.838;4.430;2023-07-29T11:27:54;27.70;95.90
23568;DHT22;11962;50.838;4.430;2023-07-29T11:30:21;27.60;96.70
23568;DHT22;11962;50.838;4.430;2023-07-29T11:32:48;27.40;96.80
23568;DHT22;11962;50.838;4.430;2023-07-29T11:35:16;27.10;96.70
23568;DHT22;11962;50.838;4.430;2023-07-29T11:37:43;27.00;96.80
23568;DHT22;11962;50.838;4.430;2023-07-29T11:40:12;26.80;97.50
23568;DHT22;11962;50.838;4.430;2023-07-29T11:42:38;26.60;97.80
23568;DHT22;11962;50.838;4.430;2023-07-29T11:45:05;26.50;98.00
23568;DHT22;11962;50.838;4.430;2023-07-29T11:47:35;26.60;98.30
23568;DHT22;11962;50.838;4.430;2023-07-29T11:50:07;26.90;98.20
23568;DHT22;11962;50.838;4.430;2023-07-29T11:52:35;27.20;97.90
23568;DHT22;11962;50.838;4.430;2023-07-29T11:55:02;28.00;97.60
23568;DHT22;11962;50.838;4.430;2023-07-29T11:57:34;29.10;95.60
23568;DHT22;11962;50.838;4.430;2023-07-29T12:00:07;30.20;93.60
23568;DHT22;11962;50.838;4.430;2023-07-29T12:02:38;30.90;91.80
23568;DHT22;11962;50.838;4.430;2023-07-29T12:05:05;30.90;91.10
23568;DHT22;11962;50.838;4.430;2023-07-29T12:07:31;30.60;91.00
23568;DHT22;11962;50.838;4.430;2023-07-29T12:09:59;30.20;90.90
23568;DHT22;11962;50.838;4.430;2023-07-29T12:12:25;29.60;91.60
23568;DHT22;11962;50.838;4.430;2023-07-29T12:14:50;29.10;93.30
23568;DHT22;11962;50.838;4.430;2023-07-29T12:17:16;28.60;95.20
23568;DHT22;11962;50.838;4.430;2023-07-29T12:19:43;28.20;96.30
23568;DHT22;11962;50.838;4.430;2023-07-29T12:22:10;27.90;97.60
23568;DHT22;11962;50.838;4.430;2023-07-29T12:24:39;27.70;99.90
23568;DHT22;11962;50.838;4.430;2023-07-29T12:27:09;27.50;99.90
23568;DHT22;11962;50.838;4.430;2023-07-29T12:29:40;27.40;99.90
23568;DHT22;11962;50.838;4.430;2023-07-29T12:32:06;27.30;99.90
23568;DHT22;11962;50.838;4.430;2023-07-29T12:34:32;27.00;99.90
23568;DHT22;11962;50.838;4.430;2023-07-29T12:36:58;26.70;99.90
23568;DHT22;11962;50.838;4.430;2023-07-29T12:39:26;26.50;99.90
23568;DHT22;11962;50.838;4.430;2023-07-29T12:41:54;26.30;99.90
23568;DHT22;11962;50.838;4.430;2023-07-29T12:44:20;26.10;99.90
23568;DHT22;11962;50.838;4.430;2023-07-29T12:46:46;26.40;99.90
23568;DHT22;11962;50.838;4.430;2023-07-29T12:49:12;26.80;99.90
23568;DHT22;11962;50.838;4.430;2023-07-29T12:51:38;26.90;99.90
23568;DHT22;11962;50.838;4.430;2023-07-29T12:54:04;26.80;99.90
23568;DHT22;11962;50.838;4.430;2023-07-29T12:56:31;26.80;99.90
23568;DHT22;11962;50.838;4.430;2023-07-29T12:59:01;27.00;99.90
23568;DHT22;11962;50.838;4.430;2023-07-29T13:01:27;27.30;99.90
23568;DHT22;11962;50.838;4.430;2023-07-29T13:03:54;27.60;99.90
23568;DHT22;11962;50.838;4.430;2023-07-29T13:06:20;27.80;99.90
23568;DHT22;11962;50.838;4.430;2023-07-29T13:08:46;28.20;99.90
23568;DHT22;11962;50.838;4.430;2023-07-29T13:11:13;28.50;99.90
23568;DHT22;11962;50.838;4.430;2023-07-29T13:13:38;28.50;99.90
23568;DHT22;11962;50.838;4.430;2023-07-29T13:16:04;28.30;99.90
23568;DHT22;11962;50.838;4.430;2023-07-29T13:18:30;28.20;99.90
23568;DHT22;11962;50.838;4.430;2023-07-29T13:20:56;28.00;99.90
23568;DHT22;11962;50.838;4.430;2023-07-29T13:23:21;27.90;99.90
23568;DHT22;11962;50.838;4.430;2023-07-29T13:25:47;27.90;99.90
23568;DHT22;11962;50.838;4.430;2023-07-29T13:28:13;28.00;99.90
23568;DHT22;11962;50.838;4.430;2023-07-29T13:30:40;28.00;99.90
23568;DHT22;11962;50.838;4.430;2023-07-29T13:33:09;28.10;99.90
23568;DHT22;11962;50.838;4.430;2023-07-29T13:35:34;28.20;99.90
23568;DHT22;11962;50.838;4.430;2023-07-29T13:38:01;28.40;99.90
23568;DHT22;11962;50.838;4.430;2023-07-29T13:40:26;28.80;99.90
23568;DHT22;11962;50.838;4.430;2023-07-29T13:42:53;29.10;99.70
23568;DHT22;11962;50.838;4.430;2023-07-29T13:45:19;29.10;98.60
23568;DHT22;11962;50.838;4.430;2023-07-29T13:47:44;28.80;98.80
23568;DHT22;11962;50.838;4.430;2023-07-29T13:50:10;28.60;99.30
23568;DHT22;11962;50.838;4.430;2023-07-29T13:52:37;28.30;98.90
23568;DHT22;11962;50.838;4.430;2023-07-29T13:55:04;28.10;99.10
23568;DHT22;11962;50.838;4.430;2023-07-29T13:57:31;28.10;99.80
23568;DHT22;11962;50.838;4.430;2023-07-29T13:59:57;28.00;99.80
23568;DHT22;11962;50.838;4.430;2023-07-29T14:02:23;28.00;98.90
23568;DHT22;11962;50.838;4.430;2023-07-29T14:04:49;27.90;99.40
23568;DHT22;11962;50.838;4.430;2023-07-29T14:07:14;28.00;99.90
23568;DHT22;11962;50.838;4.430;2023-07-29T14:09:41;28.00;99.90
23568;DHT22;11962;50.838;4.430;2023-07-29T14:12:08;28.20;99.90
23568;DHT22;11962;50.838;4.430;2023-07-29T14:14:38;28.40;98.80
23568;DHT22;11962;50.838;4.430;2023-07-29T14:17:04;28.30;99.00
23568;DHT22;11962;50.838;4.430;2023-07-29T14:19:30;28.30;98.30
23568;DHT22;11962;50.838;4.430;2023-07-29T14:21:56;28.20;98.60
23568;DHT22;11962;50.838;4.430;2023-07-29T14:24:22;28.10;98.30
23568;DHT22;11962;50.838;4.430;2023-07-29T14:26:48;28.10;98.10
23568;DHT22;11962;50.838;4.430;2023-07-29T14:29:14;28.20;98.60
23568;DHT22;11962;50.838;4.430;2023-07-29T14:31:39;28.20;97.50
23568;DHT22;11962;50.838;4.430;2023-07-29T14:34:05;28.30;97.30
23568;DHT22;11962;50.838;4.430;2023-07-29T14:36:31;28.30;97.60
23568;DHT22;11962;50.838;4.430;2023-07-29T14:38:56;28.40;97.20
23568;DHT22;11962;50.838;4.430;2023-07-29T14:41:22;28.30;96.70
23568;DHT22;11962;50.838;4.430;2023-07-29T14:43:48;28.10;96.40
23568;DHT22;11962;50.838;4.430;2023-07-29T14:46:14;28.00;96.40
23568;DHT22;11962;50.838;4.430;2023-07-29T14:48:39;27.90;96.30
23568;DHT22;11962;50.838;4.430;2023-07-29T14:51:05;27.90;96.20
23568;DHT22;11962;50.838;4.430;2023-07-29T14:53:31;27.90;96.00
23568;DHT22;11962;50.838;4.430;2023-07-29T14:55:57;27.70;96.00
23568;DHT22;11962;50.838;4.430;2023-07-29T14:58:22;27.60;96.30
23568;DHT22;11962;50.838;4.430;2023-07-29T15:00:51;27.40;96.20
23568;DHT22;11962;50.838;4.430;2023-07-29T15:03:17;27.30;96.40
23568;DHT22;11962;50.838;4.430;2023-07-29T15:05:43;27.20;96.80
23568;DHT22;11962;50.838;4.430;2023-07-29T15:08:09;27.20;97.00
23568;DHT22;11962;50.838;4.430;2023-07-29T15:10:34;27.30;97.10
23568;DHT22;11962;50.838;4.430;2023-07-29T15:13:00;27.40;97.20
23568;DHT22;11962;50.838;4.430;2023-07-29T15:15:26;27.40;97.20
23568;DHT22;11962;50.838;4.430;2023-07-29T15:17:53;27.60;97.30
23568;DHT22;11962;50.838;4.430;2023-07-29T15:20:19;27.70;97.30
23568;DHT22;11962;50.838;4.430;2023-07-29T15:22:44;27.80;97.30
23568;DHT22;11962;50.838;4.430;2023-07-29T15:25:10;27.80;97.20
23568;DHT22;11962;50.838;4.430;2023-07-29T15:27:37;27.70;97.60
23568;DHT22;11962;50.838;4.430;2023-07-29T15:30:05;27.70;97.90
23568;DHT22;11962;50.838;4.430;2023-07-29T15:32:31;27.70;97.10
23568;DHT22;11962;50.838;4.430;2023-07-29T15:34:57;27.70;97.10
23568;DHT22;11962;50.838;4.430;2023-07-29T15:37:25;27.60;96.40
23568;DHT22;11962;50.838;4.430;2023-07-29T15:39:52;27.30;96.50
23568;DHT22;11962;50.838;4.430;2023-07-29T15:42:17;27.10;97.30
23568;DHT22;11962;50.838;4.430;2023-07-29T15:44:43;27.00;97.70